This is the latest recevied weather packets stored in our database for station/object IR9AK-10. If no packets are shown the sender has not sent any weather packets the latest 10 day(s).
| Time | Temp. | Humidity | Pressure | Rain* | Wind** | Luminosity | Snow |
|---|---|---|---|---|---|---|---|
| 1777820454 | 20.56° C | 55% | 1065 hPa | - | - | - | - |
| 1777819854 | 20° C | 56% | 1065 hPa | - | - | - | - |
| 1777819254 | 20.56° C | 55% | 1064.9 hPa | - | - | - | - |
| 1777818655 | 21.67° C | 50% | 1064.8 hPa | - | - | - | - |
| 1777818056 | 20.56° C | 53% | 1064.9 hPa | - | - | - | - |
| 1777817457 | 20.56° C | 52% | 1064.9 hPa | - | - | - | - |
| 1777816858 | 20° C | 52% | 1065 hPa | - | - | - | - |
| 1777816259 | 20° C | 52% | 1065.2 hPa | - | - | - | - |
| 1777815661 | 20° C | 53% | 1065.2 hPa | - | - | - | - |
| 1777815061 | 20° C | 53% | 1065.3 hPa | - | - | - | - |
| 1777814462 | 20° C | 53% | 1065.5 hPa | - | - | - | - |
| 1777813863 | 20° C | 54% | 1065.5 hPa | - | - | - | - |
| 1777813264 | 20° C | 53% | 1065.6 hPa | - | - | - | - |
| 1777812665 | 20° C | 52% | 1065.6 hPa | - | - | - | - |
| 1777812065 | 20° C | 52% | 1065.6 hPa | - | - | - | - |
| 1777811465 | 20° C | 52% | 1065.7 hPa | - | - | - | - |
| 1777810866 | 20° C | 52% | 1065.7 hPa | - | - | - | - |
| 1777810266 | 20° C | 50% | 1065.7 hPa | - | - | - | - |
| 1777805515 | 20° C | 48% | 1066.2 hPa | - | - | - | - |
| 1777750772 | 16.67° C | 46% | 1067.5 hPa | - | - | - | - |
| 1777750174 | 16.67° C | 45% | 1067.5 hPa | - | - | - | - |
| 1777749575 | 16.67° C | 46% | 1067.3 hPa | - | - | - | - |
| 1777748976 | 16.67° C | 45% | 1067.1 hPa | - | - | - | - |
| 1777748376 | 16.67° C | 45% | 1067 hPa | - | - | - | - |
| 1777747776 | 16.67° C | 45% | 1066.9 hPa | - | - | - | - |
* Rain since midnight (hover to see other rain measurements)
** Current wind speed in m/s (hover to see current wind gust speed)